sensor_id;sensor_type;location;lat;lon;timestamp;pressure;altitude;pressure_sealevel;temperature
12854;BMP180;6495;51.808;7.478;2022-09-30T00:01:40;100251.00;;;9.40
12854;BMP180;6495;51.808;7.478;2022-09-30T00:04:14;100247.00;;;9.40
12854;BMP180;6495;51.808;7.478;2022-09-30T00:06:42;100257.00;;;9.30
12854;BMP180;6495;51.808;7.478;2022-09-30T00:09:11;100256.00;;;9.40
12854;BMP180;6495;51.808;7.478;2022-09-30T00:11:41;100262.00;;;9.40
12854;BMP180;6495;51.808;7.478;2022-09-30T00:14:15;100264.00;;;9.40
12854;BMP180;6495;51.808;7.478;2022-09-30T00:16:43;100273.00;;;9.40
12854;BMP180;6495;51.808;7.478;2022-09-30T00:19:12;100273.00;;;9.40
12854;BMP180;6495;51.808;7.478;2022-09-30T00:21:41;100263.00;;;9.40
12854;BMP180;6495;51.808;7.478;2022-09-30T00:24:09;100269.00;;;9.40
12854;BMP180;6495;51.808;7.478;2022-09-30T00:26:37;100267.00;;;9.30
12854;BMP180;6495;51.808;7.478;2022-09-30T00:29:05;100273.00;;;9.30
12854;BMP180;6495;51.808;7.478;2022-09-30T00:31:35;100269.00;;;9.20
12854;BMP180;6495;51.808;7.478;2022-09-30T00:34:03;100279.00;;;9.20
12854;BMP180;6495;51.808;7.478;2022-09-30T00:36:39;100278.00;;;9.20
12854;BMP180;6495;51.808;7.478;2022-09-30T00:39:13;100263.00;;;9.20
12854;BMP180;6495;51.808;7.478;2022-09-30T00:41:42;100270.00;;;9.10
12854;BMP180;6495;51.808;7.478;2022-09-30T00:44:47;100276.00;;;9.10
12854;BMP180;6495;51.808;7.478;2022-09-30T00:47:43;100277.00;;;9.10
12854;BMP180;6495;51.808;7.478;2022-09-30T00:50:31;100275.00;;;9.10
12854;BMP180;6495;51.808;7.478;2022-09-30T00:53:10;100277.00;;;9.10
12854;BMP180;6495;51.808;7.478;2022-09-30T00:55:49;100271.00;;;9.10
12854;BMP180;6495;51.808;7.478;2022-09-30T00:58:24;100280.00;;;9.10
12854;BMP180;6495;51.808;7.478;2022-09-30T01:00:55;100272.00;;;9.10
12854;BMP180;6495;51.808;7.478;2022-09-30T01:03:25;100279.00;;;9.10
12854;BMP180;6495;51.808;7.478;2022-09-30T01:05:55;100275.00;;;9.10
12854;BMP180;6495;51.808;7.478;2022-09-30T01:08:25;100273.00;;;9.10
12854;BMP180;6495;51.808;7.478;2022-09-30T01:10:54;100279.00;;;9.10
12854;BMP180;6495;51.808;7.478;2022-09-30T01:13:25;100279.00;;;9.10
12854;BMP180;6495;51.808;7.478;2022-09-30T01:16:14;100278.00;;;9.10
12854;BMP180;6495;51.808;7.478;2022-09-30T01:19:02;100285.00;;;9.10
12854;BMP180;6495;51.808;7.478;2022-09-30T01:22:13;100285.00;;;9.10
12854;BMP180;6495;51.808;7.478;2022-09-30T01:31:56;100288.00;;;9.00
12854;BMP180;6495;51.808;7.478;2022-09-30T01:34:38;100290.00;;;9.00
12854;BMP180;6495;51.808;7.478;2022-09-30T01:37:16;100297.00;;;9.00
12854;BMP180;6495;51.808;7.478;2022-09-30T01:39:59;100286.00;;;8.90
12854;BMP180;6495;51.808;7.478;2022-09-30T01:42:37;100293.00;;;8.90
12854;BMP180;6495;51.808;7.478;2022-09-30T01:45:15;100287.00;;;8.90
12854;BMP180;6495;51.808;7.478;2022-09-30T01:47:50;100285.00;;;8.90
12854;BMP180;6495;51.808;7.478;2022-09-30T01:50:30;100291.00;;;8.90
12854;BMP180;6495;51.808;7.478;2022-09-30T01:53:10;100293.00;;;8.90
12854;BMP180;6495;51.808;7.478;2022-09-30T01:55:50;100299.00;;;8.90
12854;BMP180;6495;51.808;7.478;2022-09-30T01:58:34;100289.00;;;8.90
12854;BMP180;6495;51.808;7.478;2022-09-30T02:01:10;100289.00;;;8.90
12854;BMP180;6495;51.808;7.478;2022-09-30T02:03:48;100294.00;;;8.90
12854;BMP180;6495;51.808;7.478;2022-09-30T02:06:22;100288.00;;;8.90
12854;BMP180;6495;51.808;7.478;2022-09-30T02:08:57;100294.00;;;8.80
12854;BMP180;6495;51.808;7.478;2022-09-30T02:11:33;100289.00;;;8.80
12854;BMP180;6495;51.808;7.478;2022-09-30T02:14:08;100286.00;;;8.70
12854;BMP180;6495;51.808;7.478;2022-09-30T02:16:40;100289.00;;;8.70
12854;BMP180;6495;51.808;7.478;2022-09-30T02:19:18;100292.00;;;8.70
12854;BMP180;6495;51.808;7.478;2022-09-30T02:21:54;100286.00;;;8.70
12854;BMP180;6495;51.808;7.478;2022-09-30T02:24:30;100292.00;;;8.70
12854;BMP180;6495;51.808;7.478;2022-09-30T02:27:07;100289.00;;;8.60
12854;BMP180;6495;51.808;7.478;2022-09-30T02:29:43;100290.00;;;8.60
12854;BMP180;6495;51.808;7.478;2022-09-30T02:32:21;100288.00;;;8.60
12854;BMP180;6495;51.808;7.478;2022-09-30T02:34:59;100285.00;;;8.60
12854;BMP180;6495;51.808;7.478;2022-09-30T02:37:33;100291.00;;;8.60
12854;BMP180;6495;51.808;7.478;2022-09-30T02:40:07;100297.00;;;8.60
12854;BMP180;6495;51.808;7.478;2022-09-30T02:42:38;100295.00;;;8.60
12854;BMP180;6495;51.808;7.478;2022-09-30T02:45:11;100292.00;;;8.50
12854;BMP180;6495;51.808;7.478;2022-09-30T02:47:57;100295.00;;;8.50
12854;BMP180;6495;51.808;7.478;2022-09-30T02:50:32;100296.00;;;8.40
12854;BMP180;6495;51.808;7.478;2022-09-30T02:53:18;100298.00;;;8.40
12854;BMP180;6495;51.808;7.478;2022-09-30T02:56:09;100299.00;;;8.40
12854;BMP180;6495;51.808;7.478;2022-09-30T02:58:42;100300.00;;;8.30
12854;BMP180;6495;51.808;7.478;2022-09-30T03:01:14;100305.00;;;8.30
12854;BMP180;6495;51.808;7.478;2022-09-30T03:03:48;100304.00;;;8.30
12854;BMP180;6495;51.808;7.478;2022-09-30T03:06:19;100309.00;;;8.30
12854;BMP180;6495;51.808;7.478;2022-09-30T03:08:47;100303.00;;;8.30
12854;BMP180;6495;51.808;7.478;2022-09-30T03:11:18;100308.00;;;8.30
12854;BMP180;6495;51.808;7.478;2022-09-30T03:14:25;100296.00;;;8.30
12854;BMP180;6495;51.808;7.478;2022-09-30T03:17:17;100302.00;;;8.20
12854;BMP180;6495;51.808;7.478;2022-09-30T03:20:19;100309.00;;;8.20
12854;BMP180;6495;51.808;7.478;2022-09-30T03:26:20;100319.00;;;8.10
12854;BMP180;6495;51.808;7.478;2022-09-30T03:29:05;100315.00;;;8.10
12854;BMP180;6495;51.808;7.478;2022-09-30T03:31:46;100313.00;;;8.00
12854;BMP180;6495;51.808;7.478;2022-09-30T03:34:22;100319.00;;;8.00
12854;BMP180;6495;51.808;7.478;2022-09-30T03:37:00;100315.00;;;8.00
12854;BMP180;6495;51.808;7.478;2022-09-30T03:39:53;100316.00;;;8.00
12854;BMP180;6495;51.808;7.478;2022-09-30T03:42:27;100314.00;;;8.00
12854;BMP180;6495;51.808;7.478;2022-09-30T03:45:04;100312.00;;;8.00
12854;BMP180;6495;51.808;7.478;2022-09-30T03:47:41;100320.00;;;8.00
12854;BMP180;6495;51.808;7.478;2022-09-30T03:50:21;100345.00;;;8.10
12854;BMP180;6495;51.808;7.478;2022-09-30T03:52:51;100342.00;;;8.10
12854;BMP180;6495;51.808;7.478;2022-09-30T03:55:22;100340.00;;;8.10
12854;BMP180;6495;51.808;7.478;2022-09-30T03:57:51;100343.00;;;8.10
12854;BMP180;6495;51.808;7.478;2022-09-30T04:00:20;100350.00;;;8.10
12854;BMP180;6495;51.808;7.478;2022-09-30T04:02:48;100343.00;;;8.10
12854;BMP180;6495;51.808;7.478;2022-09-30T04:05:22;100355.00;;;8.00
12854;BMP180;6495;51.808;7.478;2022-09-30T04:07:49;100350.00;;;8.00
12854;BMP180;6495;51.808;7.478;2022-09-30T04:10:19;100359.00;;;8.00
12854;BMP180;6495;51.808;7.478;2022-09-30T04:12:55;100361.00;;;8.00
12854;BMP180;6495;51.808;7.478;2022-09-30T04:15:34;100356.00;;;8.00
12854;BMP180;6495;51.808;7.478;2022-09-30T04:21:38;100353.00;;;8.00
12854;BMP180;6495;51.808;7.478;2022-09-30T04:24:59;100368.00;;;8.00
12854;BMP180;6495;51.808;7.478;2022-09-30T04:28:04;100363.00;;;8.00
12854;BMP180;6495;51.808;7.478;2022-09-30T04:30:50;100361.00;;;7.90
12854;BMP180;6495;51.808;7.478;2022-09-30T04:33:58;100358.00;;;8.00
12854;BMP180;6495;51.808;7.478;2022-09-30T04:36:40;100364.00;;;7.90
12854;BMP180;6495;51.808;7.478;2022-09-30T04:39:19;100383.00;;;7.90
12854;BMP180;6495;51.808;7.478;2022-09-30T04:42:27;100383.00;;;7.90
12854;BMP180;6495;51.808;7.478;2022-09-30T04:45:42;100382.00;;;7.90
12854;BMP180;6495;51.808;7.478;2022-09-30T04:48:23;100386.00;;;7.90
12854;BMP180;6495;51.808;7.478;2022-09-30T04:50:51;100383.00;;;7.90
12854;BMP180;6495;51.808;7.478;2022-09-30T04:53:23;100386.00;;;7.90
12854;BMP180;6495;51.808;7.478;2022-09-30T04:55:57;100387.00;;;7.90
12854;BMP180;6495;51.808;7.478;2022-09-30T04:58:28;100387.00;;;7.90
12854;BMP180;6495;51.808;7.478;2022-09-30T05:01:06;100394.00;;;7.90
12854;BMP180;6495;51.808;7.478;2022-09-30T05:03:37;100388.00;;;7.90
12854;BMP180;6495;51.808;7.478;2022-09-30T05:06:15;100389.00;;;7.80
12854;BMP180;6495;51.808;7.478;2022-09-30T05:08:43;100392.00;;;7.70
12854;BMP180;6495;51.808;7.478;2022-09-30T05:11:15;100386.00;;;7.70
12854;BMP180;6495;51.808;7.478;2022-09-30T05:13:45;100389.00;;;7.60
12854;BMP180;6495;51.808;7.478;2022-09-30T05:16:17;100393.00;;;7.50
12854;BMP180;6495;51.808;7.478;2022-09-30T05:18:45;100395.00;;;7.50
12854;BMP180;6495;51.808;7.478;2022-09-30T05:21:16;100402.00;;;7.60
12854;BMP180;6495;51.808;7.478;2022-09-30T05:23:47;100403.00;;;7.60
12854;BMP180;6495;51.808;7.478;2022-09-30T05:26:15;100401.00;;;7.60
12854;BMP180;6495;51.808;7.478;2022-09-30T05:28:43;100407.00;;;7.60
12854;BMP180;6495;51.808;7.478;2022-09-30T05:31:12;100405.00;;;7.60
12854;BMP180;6495;51.808;7.478;2022-09-30T05:33:42;100405.00;;;7.60
12854;BMP180;6495;51.808;7.478;2022-09-30T05:36:14;100404.00;;;7.60
12854;BMP180;6495;51.808;7.478;2022-09-30T05:38:43;100405.00;;;7.60
12854;BMP180;6495;51.808;7.478;2022-09-30T05:41:13;100411.00;;;7.60
12854;BMP180;6495;51.808;7.478;2022-09-30T05:43:43;100414.00;;;7.60
12854;BMP180;6495;51.808;7.478;2022-09-30T05:46:14;100424.00;;;7.60
12854;BMP180;6495;51.808;7.478;2022-09-30T05:48:44;100426.00;;;7.50
12854;BMP180;6495;51.808;7.478;2022-09-30T05:51:13;100433.00;;;7.50
12854;BMP180;6495;51.808;7.478;2022-09-30T05:53:43;100431.00;;;7.50
12854;BMP180;6495;51.808;7.478;2022-09-30T05:56:11;100435.00;;;7.50
12854;BMP180;6495;51.808;7.478;2022-09-30T05:58:40;100449.00;;;7.50
12854;BMP180;6495;51.808;7.478;2022-09-30T06:01:12;100444.00;;;7.60
12854;BMP180;6495;51.808;7.478;2022-09-30T06:03:41;100453.00;;;7.60
12854;BMP180;6495;51.808;7.478;2022-09-30T06:06:12;100456.00;;;7.60
12854;BMP180;6495;51.808;7.478;2022-09-30T06:08:44;100452.00;;;7.50
12854;BMP180;6495;51.808;7.478;2022-09-30T06:11:15;100455.00;;;7.60
12854;BMP180;6495;51.808;7.478;2022-09-30T06:13:46;100448.00;;;7.60
12854;BMP180;6495;51.808;7.478;2022-09-30T06:16:16;100446.00;;;7.60
12854;BMP180;6495;51.808;7.478;2022-09-30T06:18:45;100455.00;;;7.60
12854;BMP180;6495;51.808;7.478;2022-09-30T06:21:16;100454.00;;;7.60
12854;BMP180;6495;51.808;7.478;2022-09-30T06:23:49;100463.00;;;7.60
12854;BMP180;6495;51.808;7.478;2022-09-30T06:26:17;100475.00;;;7.60
12854;BMP180;6495;51.808;7.478;2022-09-30T06:28:48;100475.00;;;7.60
12854;BMP180;6495;51.808;7.478;2022-09-30T06:31:17;100467.00;;;7.60
12854;BMP180;6495;51.808;7.478;2022-09-30T06:33:46;100467.00;;;7.60
12854;BMP180;6495;51.808;7.478;2022-09-30T06:36:16;100468.00;;;7.60
12854;BMP180;6495;51.808;7.478;2022-09-30T06:38:47;100471.00;;;7.60
12854;BMP180;6495;51.808;7.478;2022-09-30T06:41:19;100476.00;;;7.50
12854;BMP180;6495;51.808;7.478;2022-09-30T06:43:47;100475.00;;;7.50
12854;BMP180;6495;51.808;7.478;2022-09-30T06:46:30;100478.00;;;7.50
12854;BMP180;6495;51.808;7.478;2022-09-30T06:48:58;100478.00;;;7.50
12854;BMP180;6495;51.808;7.478;2022-09-30T06:51:41;100481.00;;;7.50
12854;BMP180;6495;51.808;7.478;2022-09-30T06:54:09;100477.00;;;7.50
12854;BMP180;6495;51.808;7.478;2022-09-30T06:56:38;100483.00;;;7.60
12854;BMP180;6495;51.808;7.478;2022-09-30T06:59:06;100481.00;;;7.50
12854;BMP180;6495;51.808;7.478;2022-09-30T07:01:35;100484.00;;;7.60
12854;BMP180;6495;51.808;7.478;2022-09-30T07:04:03;100487.00;;;7.50
12854;BMP180;6495;51.808;7.478;2022-09-30T07:06:36;100495.00;;;7.60
12854;BMP180;6495;51.808;7.478;2022-09-30T07:09:08;100504.00;;;7.60
12854;BMP180;6495;51.808;7.478;2022-09-30T07:11:38;100498.00;;;7.70
12854;BMP180;6495;51.808;7.478;2022-09-30T07:14:07;100515.00;;;7.80
12854;BMP180;6495;51.808;7.478;2022-09-30T07:16:36;100512.00;;;7.80
12854;BMP180;6495;51.808;7.478;2022-09-30T07:19:06;100511.00;;;7.90
12854;BMP180;6495;51.808;7.478;2022-09-30T07:21:35;100503.00;;;7.90
12854;BMP180;6495;51.808;7.478;2022-09-30T07:24:15;100509.00;;;7.90
12854;BMP180;6495;51.808;7.478;2022-09-30T07:26:43;100508.00;;;8.00
12854;BMP180;6495;51.808;7.478;2022-09-30T07:29:12;100508.00;;;8.00
12854;BMP180;6495;51.808;7.478;2022-09-30T07:31:41;100515.00;;;8.00
12854;BMP180;6495;51.808;7.478;2022-09-30T07:34:10;100509.00;;;8.10
12854;BMP180;6495;51.808;7.478;2022-09-30T07:36:39;100510.00;;;8.10
12854;BMP180;6495;51.808;7.478;2022-09-30T07:39:16;100525.00;;;8.20
12854;BMP180;6495;51.808;7.478;2022-09-30T07:41:44;100518.00;;;8.30
12854;BMP180;6495;51.808;7.478;2022-09-30T07:44:18;100536.00;;;8.40
12854;BMP180;6495;51.808;7.478;2022-09-30T07:46:46;100534.00;;;8.50
12854;BMP180;6495;51.808;7.478;2022-09-30T07:49:17;100530.00;;;8.60
12854;BMP180;6495;51.808;7.478;2022-09-30T07:51:54;100525.00;;;8.80
12854;BMP180;6495;51.808;7.478;2022-09-30T07:54:32;100534.00;;;8.90
12854;BMP180;6495;51.808;7.478;2022-09-30T07:57:10;100540.00;;;9.10
12854;BMP180;6495;51.808;7.478;2022-09-30T07:59:43;100536.00;;;9.30
12854;BMP180;6495;51.808;7.478;2022-09-30T08:02:20;100534.00;;;9.40
12854;BMP180;6495;51.808;7.478;2022-09-30T08:04:54;100535.00;;;9.60
12854;BMP180;6495;51.808;7.478;2022-09-30T08:07:29;100540.00;;;9.70
12854;BMP180;6495;51.808;7.478;2022-09-30T08:10:32;100540.00;;;9.90
12854;BMP180;6495;51.808;7.478;2022-09-30T08:13:27;100537.00;;;10.10
12854;BMP180;6495;51.808;7.478;2022-09-30T08:16:08;100542.00;;;10.30
12854;BMP180;6495;51.808;7.478;2022-09-30T08:19:19;100531.00;;;10.50
12854;BMP180;6495;51.808;7.478;2022-09-30T08:22:16;100530.00;;;10.70
12854;BMP180;6495;51.808;7.478;2022-09-30T08:24:56;100544.00;;;10.90
12854;BMP180;6495;51.808;7.478;2022-09-30T08:27:35;100544.00;;;11.10
12854;BMP180;6495;51.808;7.478;2022-09-30T08:30:13;100551.00;;;11.30
12854;BMP180;6495;51.808;7.478;2022-09-30T08:33:06;100542.00;;;11.40
12854;BMP180;6495;51.808;7.478;2022-09-30T08:35:40;100549.00;;;11.60
12854;BMP180;6495;51.808;7.478;2022-09-30T08:38:22;100546.00;;;11.70
12854;BMP180;6495;51.808;7.478;2022-09-30T08:44:40;100548.00;;;12.20
12854;BMP180;6495;51.808;7.478;2022-09-30T08:47:46;100555.00;;;12.40
12854;BMP180;6495;51.808;7.478;2022-09-30T08:51:03;100557.00;;;12.50
12854;BMP180;6495;51.808;7.478;2022-09-30T08:54:08;100554.00;;;12.60
12854;BMP180;6495;51.808;7.478;2022-09-30T08:57:03;100563.00;;;12.80
12854;BMP180;6495;51.808;7.478;2022-09-30T09:00:03;100566.00;;;13.00
12854;BMP180;6495;51.808;7.478;2022-09-30T09:03:13;100565.00;;;13.10
12854;BMP180;6495;51.808;7.478;2022-09-30T09:06:43;100564.00;;;13.30
12854;BMP180;6495;51.808;7.478;2022-09-30T09:10:20;100564.00;;;13.40
12854;BMP180;6495;51.808;7.478;2022-09-30T09:13:38;100566.00;;;13.60
12854;BMP180;6495;51.808;7.478;2022-09-30T09:17:17;100577.00;;;13.80
12854;BMP180;6495;51.808;7.478;2022-09-30T09:20:28;100576.00;;;14.00
12854;BMP180;6495;51.808;7.478;2022-09-30T09:24:21;100573.00;;;14.20
12854;BMP180;6495;51.808;7.478;2022-09-30T09:27:51;100571.00;;;14.30
12854;BMP180;6495;51.808;7.478;2022-09-30T09:44:47;100570.00;;;15.00
12854;BMP180;6495;51.808;7.478;2022-09-30T10:47:01;100576.00;;;17.40
12854;BMP180;6495;51.808;7.478;2022-09-30T11:28:55;100599.00;;;17.90
12854;BMP180;6495;51.808;7.478;2022-09-30T11:31:33;100579.00;;;17.90
12854;BMP180;6495;51.808;7.478;2022-09-30T11:34:28;100601.00;;;18.00
12854;BMP180;6495;51.808;7.478;2022-09-30T11:37:06;100598.00;;;18.10
12854;BMP180;6495;51.808;7.478;2022-09-30T11:40:01;100603.00;;;18.20
12854;BMP180;6495;51.808;7.478;2022-09-30T11:42:40;100593.00;;;18.30
12854;BMP180;6495;51.808;7.478;2022-09-30T11:45:29;100596.00;;;18.40
12854;BMP180;6495;51.808;7.478;2022-09-30T11:48:23;100591.00;;;18.30
12854;BMP180;6495;51.808;7.478;2022-09-30T11:51:08;100591.00;;;18.20
12854;BMP180;6495;51.808;7.478;2022-09-30T11:53:57;100590.00;;;18.10
12854;BMP180;6495;51.808;7.478;2022-09-30T11:56:42;100583.00;;;18.10
12854;BMP180;6495;51.808;7.478;2022-09-30T11:59:20;100589.00;;;18.00
12854;BMP180;6495;51.808;7.478;2022-09-30T12:01:52;100592.00;;;18.10
12854;BMP180;6495;51.808;7.478;2022-09-30T12:04:27;100588.00;;;18.20
12854;BMP180;6495;51.808;7.478;2022-09-30T12:07:03;100582.00;;;18.20
12854;BMP180;6495;51.808;7.478;2022-09-30T12:09:39;100590.00;;;18.30
12854;BMP180;6495;51.808;7.478;2022-09-30T12:12:10;100581.00;;;18.30
12854;BMP180;6495;51.808;7.478;2022-09-30T12:14:46;100567.00;;;18.40
12854;BMP180;6495;51.808;7.478;2022-09-30T12:17:25;100576.00;;;18.40
12854;BMP180;6495;51.808;7.478;2022-09-30T12:19:57;100573.00;;;18.40
12854;BMP180;6495;51.808;7.478;2022-09-30T12:22:31;100565.00;;;18.40
12854;BMP180;6495;51.808;7.478;2022-09-30T12:25:13;100557.00;;;18.30
12854;BMP180;6495;51.808;7.478;2022-09-30T12:27:49;100555.00;;;18.40
12854;BMP180;6495;51.808;7.478;2022-09-30T12:30:21;100555.00;;;18.40
12854;BMP180;6495;51.808;7.478;2022-09-30T12:33:29;100550.00;;;18.50
12854;BMP180;6495;51.808;7.478;2022-09-30T12:36:31;100548.00;;;18.50
12854;BMP180;6495;51.808;7.478;2022-09-30T12:39:53;100540.00;;;18.40
12854;BMP180;6495;51.808;7.478;2022-09-30T12:42:50;100542.00;;;18.30
12854;BMP180;6495;51.808;7.478;2022-09-30T12:45:53;100539.00;;;18.30
12854;BMP180;6495;51.808;7.478;2022-09-30T12:48:34;100541.00;;;18.30
12854;BMP180;6495;51.808;7.478;2022-09-30T12:51:04;100537.00;;;18.20
12854;BMP180;6495;51.808;7.478;2022-09-30T12:53:37;100527.00;;;18.00
12854;BMP180;6495;51.808;7.478;2022-09-30T12:56:10;100534.00;;;18.00
12854;BMP180;6495;51.808;7.478;2022-09-30T12:58:43;100526.00;;;18.00
12854;BMP180;6495;51.808;7.478;2022-09-30T13:01:17;100527.00;;;18.00
12854;BMP180;6495;51.808;7.478;2022-09-30T13:04:13;100525.00;;;18.00
12854;BMP180;6495;51.808;7.478;2022-09-30T13:07:22;100522.00;;;18.00
12854;BMP180;6495;51.808;7.478;2022-09-30T13:10:25;100517.00;;;17.80
12854;BMP180;6495;51.808;7.478;2022-09-30T13:13:19;100514.00;;;17.60
12854;BMP180;6495;51.808;7.478;2022-09-30T13:15:50;100500.00;;;17.60
12854;BMP180;6495;51.808;7.478;2022-09-30T13:19:00;100510.00;;;17.60
12854;BMP180;6495;51.808;7.478;2022-09-30T13:21:28;100497.00;;;17.60
12854;BMP180;6495;51.808;7.478;2022-09-30T13:23:58;100508.00;;;17.70
12854;BMP180;6495;51.808;7.478;2022-09-30T13:26:38;100513.00;;;17.80
12854;BMP180;6495;51.808;7.478;2022-09-30T13:29:33;100499.00;;;17.80
12854;BMP180;6495;51.808;7.478;2022-09-30T13:32:30;100505.00;;;17.80
12854;BMP180;6495;51.808;7.478;2022-09-30T13:35:00;100493.00;;;17.80
12854;BMP180;6495;51.808;7.478;2022-09-30T13:37:36;100507.00;;;17.80
12854;BMP180;6495;51.808;7.478;2022-09-30T13:40:19;100500.00;;;17.80
12854;BMP180;6495;51.808;7.478;2022-09-30T13:43:15;100502.00;;;17.80
12854;BMP180;6495;51.808;7.478;2022-09-30T13:45:48;100500.00;;;17.70
12854;BMP180;6495;51.808;7.478;2022-09-30T13:48:25;100501.00;;;17.70
12854;BMP180;6495;51.808;7.478;2022-09-30T13:50:59;100500.00;;;17.70
12854;BMP180;6495;51.808;7.478;2022-09-30T13:53:36;100502.00;;;17.80
12854;BMP180;6495;51.808;7.478;2022-09-30T13:56:13;100501.00;;;17.80
12854;BMP180;6495;51.808;7.478;2022-09-30T13:59:34;100511.00;;;17.90
12854;BMP180;6495;51.808;7.478;2022-09-30T14:02:38;100504.00;;;17.90
12854;BMP180;6495;51.808;7.478;2022-09-30T14:05:36;100502.00;;;17.90
12854;BMP180;6495;51.808;7.478;2022-09-30T14:08:35;100503.00;;;17.90
12854;BMP180;6495;51.808;7.478;2022-09-30T14:17:39;100492.00;;;17.80
12854;BMP180;6495;51.808;7.478;2022-09-30T14:20:33;100487.00;;;17.90
12854;BMP180;6495;51.808;7.478;2022-09-30T14:23:03;100485.00;;;17.90
12854;BMP180;6495;51.808;7.478;2022-09-30T14:25:41;100489.00;;;17.90
12854;BMP180;6495;51.808;7.478;2022-09-30T14:28:16;100483.00;;;18.00
12854;BMP180;6495;51.808;7.478;2022-09-30T14:30:47;100469.00;;;18.00
12854;BMP180;6495;51.808;7.478;2022-09-30T14:33:29;100472.00;;;18.00
12854;BMP180;6495;51.808;7.478;2022-09-30T14:36:02;100475.00;;;18.20
12854;BMP180;6495;51.808;7.478;2022-09-30T14:38:36;100471.00;;;18.20
12854;BMP180;6495;51.808;7.478;2022-09-30T14:41:15;100472.00;;;18.20
12854;BMP180;6495;51.808;7.478;2022-09-30T14:43:45;100475.00;;;18.20
12854;BMP180;6495;51.808;7.478;2022-09-30T14:46:28;100465.00;;;18.20
12854;BMP180;6495;51.808;7.478;2022-09-30T14:49:03;100465.00;;;18.20
12854;BMP180;6495;51.808;7.478;2022-09-30T14:51:38;100452.00;;;18.30
12854;BMP180;6495;51.808;7.478;2022-09-30T14:54:18;100459.00;;;18.30
12854;BMP180;6495;51.808;7.478;2022-09-30T14:56:49;100464.00;;;18.40
12854;BMP180;6495;51.808;7.478;2022-09-30T14:59:23;100460.00;;;18.40
12854;BMP180;6495;51.808;7.478;2022-09-30T15:01:57;100457.00;;;18.40
12854;BMP180;6495;51.808;7.478;2022-09-30T15:04:29;100470.00;;;18.40
12854;BMP180;6495;51.808;7.478;2022-09-30T15:06:59;100460.00;;;18.20
12854;BMP180;6495;51.808;7.478;2022-09-30T15:09:33;100461.00;;;18.10
12854;BMP180;6495;51.808;7.478;2022-09-30T15:12:09;100468.00;;;18.10
12854;BMP180;6495;51.808;7.478;2022-09-30T15:14:46;100465.00;;;18.10
12854;BMP180;6495;51.808;7.478;2022-09-30T15:17:18;100454.00;;;18.10
12854;BMP180;6495;51.808;7.478;2022-09-30T15:19:47;100449.00;;;18.20
12854;BMP180;6495;51.808;7.478;2022-09-30T15:22:17;100447.00;;;18.20
12854;BMP180;6495;51.808;7.478;2022-09-30T15:24:47;100447.00;;;18.20
12854;BMP180;6495;51.808;7.478;2022-09-30T15:27:22;100450.00;;;18.20
12854;BMP180;6495;51.808;7.478;2022-09-30T15:29:56;100448.00;;;18.30
12854;BMP180;6495;51.808;7.478;2022-09-30T15:32:27;100447.00;;;18.30
12854;BMP180;6495;51.808;7.478;2022-09-30T15:34:57;100458.00;;;18.30
12854;BMP180;6495;51.808;7.478;2022-09-30T15:37:32;100460.00;;;18.40
12854;BMP180;6495;51.808;7.478;2022-09-30T15:40:01;100452.00;;;18.20
12854;BMP180;6495;51.808;7.478;2022-09-30T15:42:56;100453.00;;;18.20
12854;BMP180;6495;51.808;7.478;2022-09-30T15:45:30;100447.00;;;18.20
12854;BMP180;6495;51.808;7.478;2022-09-30T15:48:05;100440.00;;;18.10
12854;BMP180;6495;51.808;7.478;2022-09-30T15:50:40;100439.00;;;18.00
12854;BMP180;6495;51.808;7.478;2022-09-30T15:53:15;100444.00;;;17.90
12854;BMP180;6495;51.808;7.478;2022-09-30T15:55:51;100436.00;;;17.90
12854;BMP180;6495;51.808;7.478;2022-09-30T15:58:35;100447.00;;;17.90
12854;BMP180;6495;51.808;7.478;2022-09-30T16:01:31;100443.00;;;18.00
12854;BMP180;6495;51.808;7.478;2022-09-30T16:04:04;100443.00;;;17.90
12854;BMP180;6495;51.808;7.478;2022-09-30T16:06:43;100437.00;;;17.80
12854;BMP180;6495;51.808;7.478;2022-09-30T16:09:24;100444.00;;;17.70
12854;BMP180;6495;51.808;7.478;2022-09-30T16:12:03;100444.00;;;17.70
12854;BMP180;6495;51.808;7.478;2022-09-30T16:14:40;100441.00;;;17.70
12854;BMP180;6495;51.808;7.478;2022-09-30T16:17:18;100443.00;;;17.70
12854;BMP180;6495;51.808;7.478;2022-09-30T16:19:54;100443.00;;;17.70
12854;BMP180;6495;51.808;7.478;2022-09-30T16:22:50;100443.00;;;17.70
12854;BMP180;6495;51.808;7.478;2022-09-30T16:25:22;100440.00;;;17.70
12854;BMP180;6495;51.808;7.478;2022-09-30T16:27:56;100448.00;;;17.60
12854;BMP180;6495;51.808;7.478;2022-09-30T16:30:28;100444.00;;;17.60
12854;BMP180;6495;51.808;7.478;2022-09-30T16:33:03;100452.00;;;17.70
12854;BMP180;6495;51.808;7.478;2022-09-30T16:35:31;100459.00;;;17.60
12854;BMP180;6495;51.808;7.478;2022-09-30T16:38:03;100456.00;;;17.70
12854;BMP180;6495;51.808;7.478;2022-09-30T16:40:33;100463.00;;;17.70
12854;BMP180;6495;51.808;7.478;2022-09-30T16:43:03;100458.00;;;17.70
12854;BMP180;6495;51.808;7.478;2022-09-30T16:45:36;100458.00;;;17.70
12854;BMP180;6495;51.808;7.478;2022-09-30T16:48:13;100458.00;;;17.70
12854;BMP180;6495;51.808;7.478;2022-09-30T16:50:48;100450.00;;;17.70
12854;BMP180;6495;51.808;7.478;2022-09-30T16:53:19;100449.00;;;17.70
12854;BMP180;6495;51.808;7.478;2022-09-30T16:55:47;100449.00;;;17.70
12854;BMP180;6495;51.808;7.478;2022-09-30T16:58:16;100453.00;;;17.70
12854;BMP180;6495;51.808;7.478;2022-09-30T17:00:45;100458.00;;;17.60
12854;BMP180;6495;51.808;7.478;2022-09-30T17:03:17;100453.00;;;17.50
12854;BMP180;6495;51.808;7.478;2022-09-30T17:05:47;100454.00;;;17.50
12854;BMP180;6495;51.808;7.478;2022-09-30T17:08:21;100454.00;;;17.40
12854;BMP180;6495;51.808;7.478;2022-09-30T17:10:49;100448.00;;;17.40
12854;BMP180;6495;51.808;7.478;2022-09-30T17:13:18;100442.00;;;17.30
12854;BMP180;6495;51.808;7.478;2022-09-30T17:15:50;100442.00;;;17.20
12854;BMP180;6495;51.808;7.478;2022-09-30T17:18:19;100438.00;;;17.10
12854;BMP180;6495;51.808;7.478;2022-09-30T17:20:48;100433.00;;;17.00
12854;BMP180;6495;51.808;7.478;2022-09-30T17:23:20;100443.00;;;16.90
12854;BMP180;6495;51.808;7.478;2022-09-30T17:25:48;100443.00;;;16.90
12854;BMP180;6495;51.808;7.478;2022-09-30T17:28:17;100449.00;;;16.80
12854;BMP180;6495;51.808;7.478;2022-09-30T17:30:46;100443.00;;;16.70
12854;BMP180;6495;51.808;7.478;2022-09-30T17:33:17;100447.00;;;16.70
12854;BMP180;6495;51.808;7.478;2022-09-30T17:35:56;100453.00;;;16.60
12854;BMP180;6495;51.808;7.478;2022-09-30T17:38:28;100459.00;;;16.50
12854;BMP180;6495;51.808;7.478;2022-09-30T17:40:57;100456.00;;;16.50